Airfield :
LOGIN :

Register | Disclaimer

   EN    FR    IT 

 










Legend :    VFR   Marginal VFR   IFR   Intensive IFR   Very Intensive IFR
Visi :
Ceiling :
>= 8 km
>= 3000ft
5 to 8 km
1000 to 3000 ft
1500m to 5 km
500 to 1000 ft
800 to 1500m
200 to 500 ft
< 800m
< 200 ft
Symbols :   Thunderstorms  Fog  Heavy snow  Heavy precipitations  Wind > 20 kt
SIGMETs :     Misc.  Thunderstorms  Icing  Turbulence  Mountain Waves  Volcanic Ashes






- Airport Elevation : 642 ft
- IATA code : RVN


EFRO - Rovaniemi

CURRENT METAR :
  • 050420Z AUTO 20006KT 160V220 9999 FEW005 BKN017 BKN028 10/08 Q0993

EXPIRED METARs :
  • 050350Z AUTO 19005KT 160V230 9999 FEW006 SCT039 09/08 Q0993
  • 050320Z AUTO 20008KT 9999 FEW003 09/08 Q0993
  • 050250Z AUTO 21007KT 9999 BKN003 09/08 Q0993
  • 050220Z AUTO 23006KT 190V260 9999 OVC002 09/08 Q0994
  • 050150Z AUTO 22008KT 190V250 9999 VCSH BKN002 //////CB 09/09 Q0993

TAF TAF EFRO
Valid from the 05 at 03:00 until the 06 at 03:00 UTC


050233Z 0503/0603 25008KT 9999 -SHRA BKN045
TEMPO 0503/0506 BKN003
PROB40 0503/0505 7000 BKN001
TEMPO 0506/0515 6000 SHRA BKN012 SCT030CB
PROB40
TEMPO 0509/0515 TSRA
TEMPO 0515/0603 BKN007



MET'MAP, your aeronautical weather chart ! - Copyright ORBIFLY December 2007 - Disclaimer

ORBIFLY MET'MAP TEAM :

Programming & Development : Alexandra Zaïnal
Concept & original design : Baudouin d'Aumeries
Assistance for programming : Marc-Olivier Méhu
Technical & hardware support : Manuel Goepfert

Contact : metmap@orbifly.com




SOURCES & CREDITS :

   NOAA